Time;durP1;ratioP1;P1;durP2;ratioP2;P2;SDS_P1;SDS_P2;PMS_P1;PMS_P2;Temp;Humidity;BMP_temperature;BMP_pressure;BME280_temperature;BME280_humidity;BME280_pressure;Samples;Min_cycle;Max_cycle;Signal;HPM_P1;HPM_P2
2023/09/04 00:00:15;;;;;;;;;22.00;16.33;;;;;;;;5013358;28;45257;-76
2023/09/04 00:02:40;;;;;;;;;18.67;17.00;;;;;;;;5018082;28;46042;-76
2023/09/04 00:05:05;;;;;;;;;20.00;17.67;;;;;;;;5013193;28;46027;-76
2023/09/04 00:07:30;;;;;;;;;14.00;14.00;;;;;;;;5013889;28;45351;-76
2023/09/04 00:09:57;;;;;;;;;19.67;16.00;;;;;;;;5013286;28;45267;-77
2023/09/04 00:12:22;;;;;;;;;18.00;15.33;;;;;;;;5014868;28;45270;-77
2023/09/04 00:14:47;;;;;;;;;16.00;16.00;;;;;;;;5014404;28;45350;-78
2023/09/04 00:17:13;;;;;;;;;19.67;18.67;;;;;;;;5016331;28;45312;-78
2023/09/04 00:19:38;;;;;;;;;20.67;19.00;;;;;;;;5015096;28;45612;-77
2023/09/04 00:22:03;;;;;;;;;15.00;15.00;;;;;;;;5018863;28;45320;-78
2023/09/04 00:24:28;;;;;;;;;18.33;15.33;;;;;;;;5013898;28;48080;-78
2023/09/04 00:26:53;;;;;;;;;18.00;18.00;;;;;;;;5019079;28;45276;-78
2023/09/04 00:29:19;;;;;;;;;17.00;16.00;;;;;;;;5016652;28;45293;-77
2023/09/04 00:31:44;;;;;;;;;16.00;16.00;;;;;;;;5009936;28;45381;-78
2023/09/04 00:34:09;;;;;;;;;15.33;14.00;;;;;;;;5016895;28;45859;-77
2023/09/04 00:36:35;;;;;;;;;23.00;17.33;;;;;;;;5014468;28;45407;-77
2023/09/04 00:39:00;;;;;;;;;19.33;15.67;;;;;;;;5016761;28;45222;-78
2023/09/04 00:41:25;;;;;;;;;20.00;17.67;;;;;;;;5011910;28;45250;-76
2023/09/04 00:43:50;;;;;;;;;21.33;17.00;;;;;;;;5017875;28;46221;-76
2023/09/04 00:46:16;;;;;;;;;19.33;17.67;;;;;;;;5013559;28;45224;-77
2023/09/04 00:48:41;;;;;;;;;17.67;16.67;;;;;;;;5017594;28;45332;-76
2023/09/04 00:51:07;;;;;;;;;18.67;16.67;;;;;;;;5009881;28;45824;-76
2023/09/04 00:53:33;;;;;;;;;18.00;16.33;;;;;;;;5013182;28;46417;-75
2023/09/04 00:56:01;;;;;;;;;18.67;17.67;;;;;;;;5008712;28;45455;-75
2023/09/04 00:58:26;;;;;;;;;20.00;17.33;;;;;;;;5014295;28;45379;-75
2023/09/04 01:00:51;;;;;;;;;18.33;14.33;;;;;;;;5014025;28;45328;-75
2023/09/04 01:03:17;;;;;;;;;16.67;16.67;;;;;;;;5013263;28;45387;-74
2023/09/04 01:05:42;;;;;;;;;33.33;29.67;;;;;;;;5012076;28;45430;-75
2023/09/04 01:08:08;;;;;;;;;43.67;36.00;;;;;;;;5014396;28;45479;-75
2023/09/04 01:10:46;;;;;;;;;45.00;33.33;;;;;;;;5011276;28;45246;-75
2023/09/04 01:13:21;;;;;;;;;33.00;29.33;;;;;;;;5017545;28;45313;-74
2023/09/04 01:15:46;;;;;;;;;26.33;25.67;;;;;;;;5012704;28;45258;-75
2023/09/04 01:18:12;;;;;;;;;33.33;29.67;;;;;;;;5015534;28;45189;-74
2023/09/04 01:20:37;;;;;;;;;24.67;22.00;;;;;;;;5014852;28;45612;-74
2023/09/04 01:23:03;;;;;;;;;24.00;21.00;;;;;;;;5016225;28;46395;-74
2023/09/04 01:25:36;;;;;;;;;21.00;19.00;;;;;;;;5015176;28;45679;-75
2023/09/04 01:28:10;;;;;;;;;17.00;14.67;;;;;;;;5017278;28;45221;-75
2023/09/04 01:30:51;;;;;;;;;13.00;13.00;;;;;;;;5010379;28;45748;-75
2023/09/04 01:33:19;;;;;;;;;21.00;16.33;;;;;;;;5010289;28;45852;-75
2023/09/04 01:35:45;;;;;;;;;17.00;14.67;;;;;;;;5010543;28;45851;-75
2023/09/04 01:38:11;;;;;;;;;16.67;15.00;;;;;;;;5018350;28;45225;-75
2023/09/04 01:40:36;;;;;;;;;28.00;26.33;;;;;;;;5007166;28;45397;-75
2023/09/04 01:43:01;;;;;;;;;41.00;34.67;;;;;;;;5018154;28;46544;-75
2023/09/04 01:45:26;;;;;;;;;47.33;39.33;;;;;;;;5008989;28;45261;-74
2023/09/04 01:47:51;;;;;;;;;59.00;46.25;;;;;;;;5017866;28;45180;-75
2023/09/04 01:50:17;;;;;;;;;65.50;52.25;;;;;;;;5011347;28;45383;-74
2023/09/04 01:52:42;;;;;;;;;62.50;51.00;;;;;;;;5016487;28;45471;-75
2023/09/04 01:55:07;;;;;;;;;64.50;51.75;;;;;;;;5009735;28;45201;-74
2023/09/04 01:57:33;;;;;;;;;76.00;65.00;;;;;;;;5017947;28;45462;-74
2023/09/04 01:59:58;;;;;;;;;77.00;67.75;;;;;;;;5012128;28;45321;-75
2023/09/04 02:02:23;;;;;;;;;80.00;71.75;;;;;;;;5014062;28;46336;-74
2023/09/04 02:04:48;;;;;;;;;81.00;72.25;;;;;;;;5005964;28;45391;-74
2023/09/04 02:07:13;;;;;;;;;83.25;75.75;;;;;;;;5011452;28;45633;-75
2023/09/04 02:09:38;;;;;;;;;76.25;67.50;;;;;;;;5013279;28;47038;-74
2023/09/04 02:12:04;;;;;;;;;75.75;65.00;;;;;;;;5017156;28;45429;-75
2023/09/04 02:14:29;;;;;;;;;75.75;68.50;;;;;;;;5013315;28;45500;-75
2023/09/04 02:16:54;;;;;;;;;76.00;69.75;;;;;;;;5007289;28;45431;-74
2023/09/04 02:19:19;;;;;;;;;84.50;75.75;;;;;;;;5012073;28;46401;-74
2023/09/04 02:21:45;;;;;;;;;90.25;82.25;;;;;;;;5015565;28;45871;-75
2023/09/04 02:24:10;;;;;;;;;98.50;88.75;;;;;;;;5015067;28;45587;-75
2023/09/04 02:26:36;;;;;;;;;107.00;94.25;;;;;;;;5016426;28;45278;-74
2023/09/04 02:29:01;;;;;;;;;111.25;99.50;;;;;;;;5015298;28;45533;-75
2023/09/04 02:31:27;;;;;;;;;109.00;96.75;;;;;;;;5009771;28;45331;-74
2023/09/04 02:33:52;;;;;;;;;98.50;87.25;;;;;;;;5016662;28;45326;-75
2023/09/04 02:36:17;;;;;;;;;87.75;79.25;;;;;;;;5006845;28;45470;-75
2023/09/04 02:38:43;;;;;;;;;78.75;70.75;;;;;;;;5011058;28;45268;-75
2023/09/04 02:41:09;;;;;;;;;62.75;51.00;;;;;;;;5010285;28;47951;-75
2023/09/04 02:43:34;;;;;;;;;67.50;53.50;;;;;;;;5019381;28;45196;-74
2023/09/04 02:45:59;;;;;;;;;55.75;43.00;;;;;;;;5011930;28;45236;-75
2023/09/04 02:48:24;;;;;;;;;58.00;44.00;;;;;;;;5020786;28;45364;-74
2023/09/04 02:50:49;;;;;;;;;49.33;39.67;;;;;;;;5017303;28;47697;-74
2023/09/04 02:53:15;;;;;;;;;46.33;35.33;;;;;;;;5027890;28;45265;-74
2023/09/04 02:55:45;;;;;;;;;34.00;30.00;;;;;;;;5016376;28;45654;-74
2023/09/04 02:58:10;;;;;;;;;39.00;30.00;;;;;;;;5020370;28;45489;-74
2023/09/04 03:00:39;;;;;;;;;23.00;22.00;;;;;;;;5011989;28;45442;-75
2023/09/04 03:03:06;;;;;;;;;24.67;23.33;;;;;;;;5014208;28;45237;-76
2023/09/04 03:05:31;;;;;;;;;20.67;17.67;;;;;;;;5013412;28;45403;-74
2023/09/04 03:07:56;;;;;;;;;19.67;19.67;;;;;;;;5015094;28;45293;-74
2023/09/04 03:10:22;;;;;;;;;17.67;16.33;;;;;;;;5010950;28;47035;-75
2023/09/04 03:12:47;;;;;;;;;18.33;17.67;;;;;;;;5015117;28;45329;-74
2023/09/04 03:15:12;;;;;;;;;17.67;15.33;;;;;;;;5015891;28;45348;-74
2023/09/04 03:17:37;;;;;;;;;15.00;15.00;;;;;;;;5017628;28;45309;-74
2023/09/04 03:20:04;;;;;;;;;14.67;14.67;;;;;;;;5018847;28;46554;-73
2023/09/04 03:22:30;;;;;;;;;12.67;12.67;;;;;;;;5018970;28;45335;-74
2023/09/04 03:24:55;;;;;;;;;13.33;13.33;;;;;;;;5017989;28;45301;-74
2023/09/04 03:27:20;;;;;;;;;14.00;12.67;;;;;;;;5019437;28;45462;-76
2023/09/04 03:29:45;;;;;;;;;15.00;15.00;;;;;;;;5017846;28;45520;-76
2023/09/04 03:32:11;;;;;;;;;16.00;16.00;;;;;;;;5018921;28;45375;-77
2023/09/04 03:34:36;;;;;;;;;12.67;12.67;;;;;;;;5017671;28;45346;-76
2023/09/04 03:37:02;;;;;;;;;17.33;15.00;;;;;;;;5018117;28;45995;-76
2023/09/04 03:39:27;;;;;;;;;12.00;12.00;;;;;;;;5017142;28;46027;-76
2023/09/04 03:41:52;;;;;;;;;13.67;13.00;;;;;;;;5011984;28;45331;-76
2023/09/04 03:44:17;;;;;;;;;10.00;10.00;;;;;;;;5018119;28;45463;-76
2023/09/04 03:46:43;;;;;;;;;16.00;14.00;;;;;;;;5013306;28;45317;-76
2023/09/04 03:49:08;;;;;;;;;16.33;16.33;;;;;;;;5017909;28;45512;-75
2023/09/04 03:51:33;;;;;;;;;15.33;13.00;;;;;;;;5015229;28;45289;-75
2023/09/04 03:54:02;;;;;;;;;14.00;14.00;;;;;;;;5017767;28;45169;-75
2023/09/04 03:56:31;;;;;;;;;17.67;16.00;;;;;;;;5006557;28;45326;-76
2023/09/04 03:58:56;;;;;;;;;21.67;19.67;;;;;;;;5014703;28;47030;-75
2023/09/04 04:01:22;;;;;;;;;18.00;16.67;;;;;;;;5009213;28;45369;-75
2023/09/04 04:03:47;;;;;;;;;17.67;17.67;;;;;;;;5016666;28;45298;-76
2023/09/04 04:06:13;;;;;;;;;18.67;17.67;;;;;;;;5010060;28;45403;-75
2023/09/04 04:08:38;;;;;;;;;15.33;12.67;;;;;;;;5017048;28;46312;-75
2023/09/04 04:11:04;;;;;;;;;15.00;15.00;;;;;;;;5010510;28;45368;-75
2023/09/04 04:13:29;;;;;;;;;14.67;14.67;;;;;;;;5016851;28;45230;-75
2023/09/04 04:15:56;;;;;;;;;16.00;14.00;;;;;;;;5014597;28;45510;-75
2023/09/04 04:18:21;;;;;;;;;15.00;15.00;;;;;;;;5017719;28;46278;-75
2023/09/04 04:20:47;;;;;;;;;14.33;12.67;;;;;;;;5019406;28;45356;-75
2023/09/04 04:23:12;;;;;;;;;18.33;14.33;;;;;;;;5018867;28;45404;-75
2023/09/04 04:25:37;;;;;;;;;15.67;12.67;;;;;;;;5022068;28;45166;-75
2023/09/04 04:28:02;;;;;;;;;12.00;12.00;;;;;;;;5022938;28;45379;-76
2023/09/04 04:30:28;;;;;;;;;13.67;13.67;;;;;;;;5015712;28;45294;-75
2023/09/04 04:32:53;;;;;;;;;10.67;9.67;;;;;;;;5019066;28;45585;-75
2023/09/04 04:35:18;;;;;;;;;13.67;12.33;;;;;;;;5012811;28;45404;-76
2023/09/04 04:37:43;;;;;;;;;9.00;9.00;;;;;;;;5024240;28;45417;-76
2023/09/04 04:40:09;;;;;;;;;12.33;12.33;;;;;;;;5011889;28;45333;-75
2023/09/04 04:42:34;;;;;;;;;15.00;11.00;;;;;;;;5016117;28;45449;-74
2023/09/04 05:44:23;;;;;;;;;18.33;14.67;;;;;;;;5830824;22;46857;-75
2023/09/04 05:46:49;;;;;;;;;13.00;12.00;;;;;;;;5031838;28;45375;-75
2023/09/04 05:49:14;;;;;;;;;13.00;12.33;;;;;;;;5016873;28;45960;-75
2023/09/04 05:51:39;;;;;;;;;13.33;12.00;;;;;;;;5033870;28;45481;-75
2023/09/04 05:54:04;;;;;;;;;14.67;11.33;;;;;;;;5039914;28;45662;-74
2023/09/04 05:56:29;;;;;;;;;15.33;15.33;;;;;;;;5032090;28;45319;-74
2023/09/04 05:58:56;;;;;;;;;15.00;15.00;;;;;;;;5031274;28;45702;-74
2023/09/04 06:01:23;;;;;;;;;17.00;14.00;;;;;;;;5030288;28;46128;-74
2023/09/04 06:03:48;;;;;;;;;12.67;12.67;;;;;;;;5018442;28;45281;-74
2023/09/04 06:06:14;;;;;;;;;18.00;15.33;;;;;;;;5012953;28;45714;-74
2023/09/04 06:08:39;;;;;;;;;13.67;13.67;;;;;;;;5035340;28;45723;-75
2023/09/04 06:11:05;;;;;;;;;16.00;15.00;;;;;;;;5027609;28;46228;-74
2023/09/04 06:13:31;;;;;;;;;19.00;15.67;;;;;;;;5035718;28;45374;-74
2023/09/04 06:15:56;;;;;;;;;15.00;14.67;;;;;;;;5017391;28;45521;-75
2023/09/04 06:18:22;;;;;;;;;14.00;14.00;;;;;;;;5020846;28;47081;-74
2023/09/04 06:20:47;;;;;;;;;17.67;14.67;;;;;;;;5035158;28;46372;-74
2023/09/04 06:23:12;;;;;;;;;16.00;15.00;;;;;;;;5040216;28;45323;-75
2023/09/04 06:25:44;;;;;;;;;19.67;18.00;;;;;;;;5018135;28;45439;-77
2023/09/04 06:28:10;;;;;;;;;23.00;18.67;;;;;;;;5038929;28;45384;-76
2023/09/04 06:30:35;;;;;;;;;20.33;16.67;;;;;;;;5037350;28;46193;-76
2023/09/04 06:33:01;;;;;;;;;16.67;16.67;;;;;;;;5037466;28;45479;-76
2023/09/04 06:35:26;;;;;;;;;17.00;14.67;;;;;;;;5031768;28;45517;-76
2023/09/04 06:37:51;;;;;;;;;19.33;18.67;;;;;;;;5018681;28;45388;-75
2023/09/04 06:40:17;;;;;;;;;15.67;15.33;;;;;;;;5034335;28;45480;-74
2023/09/04 06:42:42;;;;;;;;;15.00;14.00;;;;;;;;5039965;28;45533;-75
2023/09/04 06:45:07;;;;;;;;;15.00;15.00;;;;;;;;5016073;28;45569;-75
2023/09/04 06:47:32;;;;;;;;;17.33;13.67;;;;;;;;5037511;28;45429;-76
2023/09/04 06:49:58;;;;;;;;;11.67;11.67;;;;;;;;5033250;28;46545;-76
2023/09/04 06:52:23;;;;;;;;;14.33;13.67;;;;;;;;5039603;28;45387;-75
2023/09/04 06:54:48;;;;;;;;;14.67;14.00;;;;;;;;5022306;28;45424;-74
2023/09/04 06:57:13;;;;;;;;;16.00;15.00;;;;;;;;5039039;28;45388;-75
2023/09/04 06:59:38;;;;;;;;;15.00;13.00;;;;;;;;5034215;28;45566;-75
2023/09/04 07:02:04;;;;;;;;;15.00;13.33;;;;;;;;5038833;28;45561;-74
2023/09/04 07:04:29;;;;;;;;;15.00;13.67;;;;;;;;5036503;28;45387;-73
2023/09/04 07:06:54;;;;;;;;;13.67;12.67;;;;;;;;5039261;28;45607;-73
2023/09/04 07:09:19;;;;;;;;;14.00;13.00;;;;;;;;5019367;28;46959;-73
2023/09/04 07:11:44;;;;;;;;;10.00;10.00;;;;;;;;5037623;28;45355;-73
2023/09/04 07:14:10;;;;;;;;;13.33;12.00;;;;;;;;5036960;28;45423;-72
2023/09/04 07:16:37;;;;;;;;;18.00;13.00;;;;;;;;5038654;28;45380;-73
2023/09/04 07:19:02;;;;;;;;;6.33;5.00;;;;;;;;5037225;28;45176;-73
2023/09/04 07:21:27;;;;;;;;;15.33;12.33;;;;;;;;5039599;28;45433;-72
2023/09/04 07:23:52;;;;;;;;;13.33;12.33;;;;;;;;5037525;28;45304;-72
2023/09/04 07:26:18;;;;;;;;;9.33;9.33;;;;;;;;5031889;28;45284;-73
2023/09/04 07:28:43;;;;;;;;;8.67;8.67;;;;;;;;5037918;28;46189;-74
2023/09/04 07:31:13;;;;;;;;;12.33;10.67;;;;;;;;5034126;28;45304;-74
2023/09/04 07:33:38;;;;;;;;;12.25;11.75;;;;;;;;5034281;28;45499;-74
2023/09/04 07:36:04;;;;;;;;;9.25;9.25;;;;;;;;5027885;28;45291;-73
2023/09/04 07:38:31;;;;;;;;;10.25;10.25;;;;;;;;5032616;28;45980;-74
2023/09/04 07:41:03;;;;;;;;;10.25;9.25;;;;;;;;5030846;28;45229;-74
2023/09/04 07:43:29;;;;;;;;;10.75;10.75;;;;;;;;5021589;28;45371;-71
2023/09/04 07:45:55;;;;;;;;;11.75;10.75;;;;;;;;5026735;28;46195;-72
2023/09/04 07:48:21;;;;;;;;;9.50;9.50;;;;;;;;5046660;28;45628;-72
2023/09/04 07:50:46;;;;;;;;;12.00;12.00;;;;;;;;5028761;28;45367;-72
2023/09/04 07:53:11;;;;;;;;;12.75;10.50;;;;;;;;5054013;28;45418;-72
2023/09/04 07:55:36;;;;;;;;;11.75;10.50;;;;;;;;5034373;28;45261;-71
2023/09/04 07:58:01;;;;;;;;;13.00;10.25;;;;;;;;5030824;28;45369;-74
2023/09/04 08:00:27;;;;;;;;;13.50;12.00;;;;;;;;5033942;28;46366;-73
2023/09/04 08:02:52;;;;;;;;;10.75;10.25;;;;;;;;5021967;28;45285;-72
2023/09/04 08:05:17;;;;;;;;;9.00;8.50;;;;;;;;5017266;28;46695;-72
2023/09/04 08:07:42;;;;;;;;;10.75;9.25;;;;;;;;5033409;28;45492;-72
2023/09/04 08:10:08;;;;;;;;;10.75;9.50;;;;;;;;5020943;28;45358;-72
2023/09/04 08:12:33;;;;;;;;;8.50;8.50;;;;;;;;5021031;28;45385;-72
2023/09/04 08:14:58;;;;;;;;;12.25;10.25;;;;;;;;5036492;28;45407;-72
2023/09/04 08:17:25;;;;;;;;;8.25;8.25;;;;;;;;5038360;28;46099;-73
2023/09/04 08:19:51;;;;;;;;;10.50;10.50;;;;;;;;5034499;28;45395;-73
2023/09/04 08:22:16;;;;;;;;;8.75;8.00;;;;;;;;5039371;28;45460;-73
2023/09/04 08:24:41;;;;;;;;;11.00;9.25;;;;;;;;5035264;28;45430;-73
2023/09/04 08:27:06;;;;;;;;;9.75;8.50;;;;;;;;5037510;28;45299;-73
2023/09/04 08:29:31;;;;;;;;;11.00;8.25;;;;;;;;5018229;28;45331;-73
2023/09/04 08:31:57;;;;;;;;;8.00;8.00;;;;;;;;5038556;28;45324;-73
2023/09/04 08:34:22;;;;;;;;;9.00;9.00;;;;;;;;5037375;28;45552;-72
2023/09/04 08:36:47;;;;;;;;;7.00;7.00;;;;;;;;5030663;28;46637;-72
2023/09/04 08:39:12;;;;;;;;;8.50;6.75;;;;;;;;5037540;28;45415;-73
2023/09/04 08:41:38;;;;;;;;;9.25;9.25;;;;;;;;5031794;28;45371;-73
2023/09/04 08:44:03;;;;;;;;;8.50;8.50;;;;;;;;5037327;28;45430;-73
2023/09/04 08:46:29;;;;;;;;;8.25;7.25;;;;;;;;5029711;28;46673;-74
2023/09/04 08:48:56;;;;;;;;;7.00;7.00;;;;;;;;5037009;28;45241;-74
2023/09/04 08:51:21;;;;;;;;;9.40;7.40;;;;;;;;5034498;28;45162;-74
2023/09/04 08:53:49;;;;;;;;;8.75;8.75;;;;;;;;5039686;28;45501;-73
2023/09/04 08:56:15;;;;;;;;;7.60;7.60;;;;;;;;5032412;28;45388;-74
2023/09/04 08:58:41;;;;;;;;;10.00;8.25;;;;;;;;5052720;28;45324;-74
2023/09/04 09:01:06;;;;;;;;;8.50;8.50;;;;;;;;5015289;28;45770;-73
2023/09/04 09:03:32;;;;;;;;;13.25;9.00;;;;;;;;5038153;28;45435;-73
2023/09/04 09:05:57;;;;;;;;;9.00;7.75;;;;;;;;5046513;28;46793;-72
2023/09/04 09:08:23;;;;;;;;;6.00;6.00;;;;;;;;5038581;28;45313;-72
2023/09/04 09:10:49;;;;;;;;;8.00;8.00;;;;;;;;5034179;28;45361;-73
2023/09/04 09:13:14;;;;;;;;;7.50;7.50;;;;;;;;5020088;28;45771;-73
2023/09/04 09:15:40;;;;;;;;;8.75;7.00;;;;;;;;5034693;28;45987;-73
2023/09/04 09:18:05;;;;;;;;;9.40;7.40;;;;;;;;5037446;28;45338;-73
2023/09/04 09:20:38;;;;;;;;;5.75;5.75;;;;;;;;5016006;28;46554;-73
2023/09/04 09:23:06;;;;;;;;;6.40;6.20;;;;;;;;5035638;28;45283;-73
2023/09/04 09:25:32;;;;;;;;;9.60;8.60;;;;;;;;5034519;28;46218;-73
2023/09/04 09:27:59;;;;;;;;;6.50;6.50;;;;;;;;5036411;28;45161;-73
2023/09/04 09:30:24;;;;;;;;;8.00;8.00;;;;;;;;5012972;28;45328;-73
2023/09/04 09:32:52;;;;;;;;;9.00;4.50;;;;;;;;5037457;28;45455;-73
2023/09/04 09:35:20;;;;;;;;;8.80;8.00;;;;;;;;5025164;28;46105;-72
2023/09/04 09:37:45;;;;;;;;;7.00;6.60;;;;;;;;5035667;28;45241;-73
2023/09/04 09:40:11;;;;;;;;;8.50;7.00;;;;;;;;5031561;28;45533;-73
2023/09/04 09:42:36;;;;;;;;;7.00;7.00;;;;;;;;5050534;28;46919;-73
2023/09/04 09:45:04;;;;;;;;;8.25;7.50;;;;;;;;5032077;28;46052;-73
2023/09/04 09:47:31;;;;;;;;;9.00;8.60;;;;;;;;5016656;28;46589;-73
2023/09/04 09:49:57;;;;;;;;;6.20;4.40;;;;;;;;5015497;28;45578;-72
2023/09/04 09:52:22;;;;;;;;;7.00;7.00;;;;;;;;5026000;28;45439;-73
2023/09/04 09:54:48;;;;;;;;;4.00;4.00;;;;;;;;5033647;28;46268;-73
2023/09/04 09:57:14;;;;;;;;;8.00;6.75;;;;;;;;5032458;28;45447;-73
2023/09/04 09:59:48;;;;;;;;;6.80;6.80;;;;;;;;5028998;28;45383;-73
2023/09/04 10:02:23;;;;;;;;;11.00;11.00;;;;;;;;5035485;28;45576;-74
2023/09/04 10:04:49;;;;;;;;;7.00;6.00;;;;;;;;5017407;28;47280;-74
2023/09/04 10:07:20;;;;;;;;;7.00;6.75;;;;;;;;5033197;28;45485;-74
2023/09/04 10:09:46;;;;;;;;;8.60;7.00;;;;;;;;5015383;28;45547;-74
2023/09/04 10:12:18;;;;;;;;;6.20;6.20;;;;;;;;5034990;28;45493;-74
2023/09/04 10:14:45;;;;;;;;;4.40;4.40;;;;;;;;5031681;28;45418;-75
2023/09/04 10:17:20;;;;;;;;;7.40;7.40;;;;;;;;5018036;28;45509;-74
2023/09/04 10:19:47;;;;;;;;;7.40;7.00;;;;;;;;5021866;28;45403;-74
2023/09/04 10:22:16;;;;;;;;;8.20;7.00;;;;;;;;5036779;28;45490;-72
2023/09/04 10:24:45;;;;;;;;;6.60;6.00;;;;;;;;5019330;28;47276;-74
2023/09/04 10:27:11;;;;;;;;;6.60;6.20;;;;;;;;5032142;28;45399;-73
2023/09/04 10:29:42;;;;;;;;;6.25;6.25;;;;;;;;5034886;28;45379;-74
2023/09/04 10:32:08;;;;;;;;;7.40;7.40;;;;;;;;5025515;28;45494;-72
2023/09/04 10:34:34;;;;;;;;;11.80;11.60;;;;;;;;5031322;28;46299;-73
2023/09/04 10:36:59;;;;;;;;;7.00;7.00;;;;;;;;5024869;28;45377;-74
2023/09/04 10:39:24;;;;;;;;;7.75;7.75;;;;;;;;5027627;28;45210;-74
2023/09/04 10:41:50;;;;;;;;;9.25;6.75;;;;;;;;5027481;28;45431;-73
2023/09/04 10:44:34;;;;;;;;;8.25;7.75;;;;;;;;5029951;28;45360;-73
2023/09/04 10:46:59;;;;;;;;;8.20;6.80;;;;;;;;5021942;28;45269;-73
2023/09/04 10:49:31;;;;;;;;;9.25;8.00;;;;;;;;5029018;28;45505;-73
2023/09/04 10:51:56;;;;;;;;;10.00;10.00;;;;;;;;5015865;28;46604;-72
2023/09/04 10:54:25;;;;;;;;;6.75;6.75;;;;;;;;5033437;28;45495;-72
2023/09/04 10:57:01;;;;;;;;;7.20;6.20;;;;;;;;5026289;28;45370;-72
2023/09/04 10:59:26;;;;;;;;;6.80;6.60;;;;;;;;5017635;28;45427;-72
2023/09/04 11:01:52;;;;;;;;;7.75;7.00;;;;;;;;5014200;28;47093;-72
2023/09/04 11:04:26;;;;;;;;;6.25;6.25;;;;;;;;5034552;28;45310;-72
2023/09/04 11:07:11;;;;;;;;;7.60;6.60;;;;;;;;5019268;28;45451;-74
2023/09/04 11:09:36;;;;;;;;;7.20;7.20;;;;;;;;5029806;28;45305;-74
2023/09/04 11:12:02;;;;;;;;;8.50;5.50;;;;;;;;5034542;28;45639;-74
2023/09/04 11:14:32;;;;;;;;;7.50;7.50;;;;;;;;5035288;28;45340;-74
2023/09/04 11:17:02;;;;;;;;;4.80;4.80;;;;;;;;5017977;28;45297;-74
2023/09/04 11:19:28;;;;;;;;;5.60;4.60;;;;;;;;5036137;28;45279;-74
2023/09/04 11:21:53;;;;;;;;;6.00;6.00;;;;;;;;5034531;28;45401;-73
2023/09/04 11:24:22;;;;;;;;;7.75;7.75;;;;;;;;5026659;28;48690;-74
2023/09/04 11:26:47;;;;;;;;;6.60;6.20;;;;;;;;5037587;28;45460;-73
2023/09/04 11:29:13;;;;;;;;;6.00;4.50;;;;;;;;5020354;28;45464;-75
2023/09/04 11:31:38;;;;;;;;;5.00;5.00;;;;;;;;5039418;28;45225;-74
2023/09/04 11:34:04;;;;;;;;;6.50;6.50;;;;;;;;5038362;28;45354;-74
2023/09/04 11:36:29;;;;;;;;;5.20;5.20;;;;;;;;5039598;28;45581;-74
2023/09/04 11:39:09;;;;;;;;;6.00;6.00;;;;;;;;5038688;28;45355;-75
2023/09/04 11:41:35;;;;;;;;;6.20;6.20;;;;;;;;5029845;28;45285;-73
2023/09/04 11:44:01;;;;;;;;;6.50;6.50;;;;;;;;5038859;28;45535;-74
2023/09/04 11:46:27;;;;;;;;;5.00;4.20;;;;;;;;5010072;28;45329;-72
2023/09/04 11:48:52;;;;;;;;;7.00;6.75;;;;;;;;5038268;28;45325;-75
2023/09/04 11:51:17;;;;;;;;;6.75;5.50;;;;;;;;5033806;28;45269;-75
2023/09/04 11:53:43;;;;;;;;;6.50;5.50;;;;;;;;5039969;28;45555;-75
2023/09/04 11:56:09;;;;;;;;;5.25;4.25;;;;;;;;5027693;28;45277;-74
2023/09/04 11:58:35;;;;;;;;;6.20;5.20;;;;;;;;5033678;28;45360;-74
2023/09/04 12:01:01;;;;;;;;;6.60;6.20;;;;;;;;5031866;28;45411;-74
2023/09/04 12:03:26;;;;;;;;;3.25;3.25;;;;;;;;5035339;28;45392;-74
2023/09/04 12:05:51;;;;;;;;;3.00;3.00;;;;;;;;5033047;28;45407;-74
2023/09/04 12:08:17;;;;;;;;;6.00;5.00;;;;;;;;5016850;28;46843;-75
2023/09/04 12:10:42;;;;;;;;;4.75;4.75;;;;;;;;5015732;28;46067;-75
2023/09/04 12:13:08;;;;;;;;;2.50;1.75;;;;;;;;5034095;28;46092;-74
2023/09/04 12:15:34;;;;;;;;;5.60;5.60;;;;;;;;5033788;28;45333;-74
2023/09/04 12:18:03;;;;;;;;;4.50;3.25;;;;;;;;5015406;28;45480;-75
2023/09/04 12:20:33;;;;;;;;;3.80;2.40;;;;;;;;5033990;28;45536;-74
2023/09/04 12:22:58;;;;;;;;;4.00;4.00;;;;;;;;5032081;28;48359;-74
2023/09/04 12:25:37;;;;;;;;;4.75;4.75;;;;;;;;5031055;28;45723;-75
2023/09/04 12:28:04;;;;;;;;;5.40;4.60;;;;;;;;5034575;28;45365;-74
2023/09/04 12:30:29;;;;;;;;;4.20;4.20;;;;;;;;5012584;28;46460;-75
2023/09/04 12:32:57;;;;;;;;;5.00;4.00;;;;;;;;5034027;28;46297;-74
2023/09/04 12:35:23;;;;;;;;;7.20;4.20;;;;;;;;5029459;28;45375;-75
2023/09/04 12:37:48;;;;;;;;;6.00;4.00;;;;;;;;5036828;28;45339;-74
2023/09/04 12:40:14;;;;;;;;;2.25;2.25;;;;;;;;5013606;28;46394;-75
2023/09/04 12:42:39;;;;;;;;;7.00;6.00;;;;;;;;5051237;28;47202;-74
2023/09/04 12:45:06;;;;;;;;;6.00;5.00;;;;;;;;5016842;28;47160;-74
2023/09/04 12:47:31;;;;;;;;;4.60;3.60;;;;;;;;5010407;28;45326;-75
2023/09/04 12:49:56;;;;;;;;;4.50;4.25;;;;;;;;5025323;28;45396;-75
2023/09/04 12:52:21;;;;;;;;;4.25;3.25;;;;;;;;5019158;28;47054;-75
2023/09/04 12:54:47;;;;;;;;;4.75;2.25;;;;;;;;5032245;28;45285;-75
2023/09/04 12:57:12;;;;;;;;;3.50;3.50;;;;;;;;5029786;28;45292;-75
2023/09/04 12:59:37;;;;;;;;;5.50;4.25;;;;;;;;5025535;28;45411;-75
2023/09/04 13:02:03;;;;;;;;;5.00;3.25;;;;;;;;5040891;28;47263;-75
2023/09/04 13:04:28;;;;;;;;;4.00;4.00;;;;;;;;5026395;28;45263;-74
2023/09/04 13:06:53;;;;;;;;;4.50;4.00;;;;;;;;5026248;28;45434;-78
2023/09/04 13:09:18;;;;;;;;;5.50;4.00;;;;;;;;5024467;28;45506;-77
2023/09/04 13:11:43;;;;;;;;;3.00;3.00;;;;;;;;5024417;28;45555;-77
2023/09/04 13:14:09;;;;;;;;;3.00;3.00;;;;;;;;5026468;28;45506;-78
2023/09/04 13:16:34;;;;;;;;;4.75;3.00;;;;;;;;5031825;28;45206;-77
2023/09/04 13:18:59;;;;;;;;;2.50;2.50;;;;;;;;5052537;28;45391;-76
2023/09/04 13:21:24;;;;;;;;;4.25;3.75;;;;;;;;5032942;28;46278;-78
2023/09/04 13:23:50;;;;;;;;;4.00;4.00;;;;;;;;5019328;28;45282;-76
2023/09/04 13:26:15;;;;;;;;;3.00;3.00;;;;;;;;5026652;28;45367;-77
2023/09/04 13:28:40;;;;;;;;;3.00;3.00;;;;;;;;5037934;28;45529;-76
2023/09/04 13:31:05;;;;;;;;;3.00;2.00;;;;;;;;5028395;28;45765;-75
2023/09/04 13:33:30;;;;;;;;;3.00;3.00;;;;;;;;5039015;28;45478;-75
2023/09/04 13:35:56;;;;;;;;;2.50;2.00;;;;;;;;5028879;28;45435;-75
2023/09/04 13:38:21;;;;;;;;;2.50;2.50;;;;;;;;5020737;28;46670;-75
2023/09/04 13:40:46;;;;;;;;;2.50;2.50;;;;;;;;5030025;28;46237;-76
2023/09/04 13:43:12;;;;;;;;;3.50;3.50;;;;;;;;5038713;28;45327;-75
2023/09/04 13:45:37;;;;;;;;;3.75;2.50;;;;;;;;5027162;28;45589;-76
2023/09/04 13:48:02;;;;;;;;;3.00;3.00;;;;;;;;5028504;28;45486;-76
2023/09/04 13:50:28;;;;;;;;;3.00;3.00;;;;;;;;5028233;28;45414;-76
2023/09/04 13:52:53;;;;;;;;;2.50;1.25;;;;;;;;5038844;28;45449;-77
2023/09/04 13:55:21;;;;;;;;;2.00;2.00;;;;;;;;5035518;28;46604;-77
2023/09/04 13:57:46;;;;;;;;;4.00;4.00;;;;;;;;5038188;28;45383;-76
2023/09/04 14:00:11;;;;;;;;;4.00;2.50;;;;;;;;5031372;28;46406;-78
2023/09/04 14:02:37;;;;;;;;;3.00;3.00;;;;;;;;5020117;28;45244;-76
2023/09/04 14:05:02;;;;;;;;;3.00;3.00;;;;;;;;5033114;28;45319;-76
2023/09/04 14:07:28;;;;;;;;;3.00;3.00;;;;;;;;5031863;28;45734;-76
2023/09/04 14:09:54;;;;;;;;;3.00;3.00;;;;;;;;5018987;28;47207;-77
2023/09/04 14:12:19;;;;;;;;;1.00;1.00;;;;;;;;5019971;28;45321;-76
2023/09/04 14:14:44;;;;;;;;;2.00;2.00;;;;;;;;5033722;28;45115;-77
2023/09/04 14:17:09;;;;;;;;;2.50;2.50;;;;;;;;5034218;28;45260;-76
2023/09/04 14:19:35;;;;;;;;;3.50;3.50;;;;;;;;5017375;28;46185;-76
2023/09/04 14:22:00;;;;;;;;;2.50;2.50;;;;;;;;5034272;28;45444;-76
2023/09/04 14:24:25;;;;;;;;;3.50;3.50;;;;;;;;5024125;28;45217;-76
2023/09/04 14:26:50;;;;;;;;;2.25;2.25;;;;;;;;5036619;28;45342;-77
2023/09/04 14:29:16;;;;;;;;;3.00;2.00;;;;;;;;5033602;28;45425;-77
2023/09/04 14:31:41;;;;;;;;;1.00;1.00;;;;;;;;5036848;28;45423;-76
2023/09/04 14:34:06;;;;;;;;;2.75;2.75;;;;;;;;5033091;28;45696;-76
2023/09/04 14:36:31;;;;;;;;;2.00;1.00;;;;;;;;5029338;28;45488;-76
2023/09/04 14:38:58;;;;;;;;;3.75;3.25;;;;;;;;5034546;28;45498;-77
2023/09/04 14:41:31;;;;;;;;;5.60;3.80;;;;;;;;5033920;28;45394;-76
2023/09/04 14:43:56;;;;;;;;;0.80;0.80;;;;;;;;5018377;28;45348;-78
2023/09/04 14:46:23;;;;;;;;;2.00;2.00;;;;;;;;5010434;28;46002;-79
2023/09/04 14:48:48;;;;;;;;;1.00;1.00;;;;;;;;5032198;28;46315;-77
2023/09/04 14:51:13;;;;;;;;;0.50;0.50;;;;;;;;5033370;28;45328;-76
2023/09/04 14:53:39;;;;;;;;;1.00;1.00;;;;;;;;5041673;28;45368;-78
2023/09/04 14:56:04;;;;;;;;;2.00;2.00;;;;;;;;5032273;28;45463;-75
2023/09/04 14:58:29;;;;;;;;;4.00;2.25;;;;;;;;5040681;28;45522;-76
2023/09/04 15:00:55;;;;;;;;;2.50;2.50;;;;;;;;5033046;28;45294;-78
2023/09/04 15:03:20;;;;;;;;;3.50;3.50;;;;;;;;5035931;28;45454;-77
2023/09/04 15:05:46;;;;;;;;;2.50;2.00;;;;;;;;5033955;28;45411;-77
2023/09/04 15:08:11;;;;;;;;;3.50;2.00;;;;;;;;5034964;28;45158;-76
2023/09/04 15:10:37;;;;;;;;;3.60;3.60;;;;;;;;5034560;28;45411;-75
2023/09/04 15:13:02;;;;;;;;;5.00;3.00;;;;;;;;5036015;28;45168;-76
2023/09/04 15:15:28;;;;;;;;;3.50;1.25;;;;;;;;5028886;28;45292;-75
2023/09/04 15:17:54;;;;;;;;;4.00;2.00;;;;;;;;5034767;28;47149;-76
2023/09/04 15:20:19;;;;;;;;;5.00;3.00;;;;;;;;5018503;28;45389;-76
2023/09/04 15:22:44;;;;;;;;;4.00;3.00;;;;;;;;5037310;28;45442;-76